Ovid, NY (14521)

11:08 PM EST on February 05, 2016 (GMT -0500)
Buttonwood Grove Winery | | Change Station
CLOSE
Current Station
Personal Weather Station
Location: Romulus, NY
Elevation: 475 ft
Nearby Weather Stations

Elev 475 ft 42.73 °N, 76.77 °W | Updated 3 seconds ago

Partly Cloudy
Partly Cloudy
27.9 °F
Feels Like 28 °F
N
0.0
Wind Variable Wind from West
Gusts 6.0 mph

Today
High -- | Low -- °F
--% Chance of Precip.
Yesterday
High -- | Low -- °F
Precip. -- in
Pressure 30.34 in
Visibility 10.0 miles
Clouds Clear
Windchill 28 °F
Dew Point 21 °F
Humidity 74%
Rainfall 0.00 in
Snow Depth Not available.
7:17 AM 5:25 PM
Waning Crescent, 8% visible
METAR KPEO 060353Z AUTO 23009KT 10SM CLR M02/M08 A3029 RMK AO2 SLP272 T10221078 TSNO
Pressure 30.34 in
Visibility 10.0 miles
Clouds Clear
Windchill 28 °F
Dew Point 21 °F
Humidity 74%
Rainfall 0.00 in
Snow Depth Not available.
7:17 AM 5:25 PM
Waning Crescent, 8% visible
METAR KPEO 060353Z AUTO 23009KT 10SM CLR M02/M08 A3029 RMK AO2 SLP272 T10221078 TSNO

10-Day Weather Forecast

Almanac

Astronomy

Feb. 05, 2016 Rise Set
Actual Time
Civil Twilight
Nautical Twilight
Astronomical Twilight
Moon
Length of Visible Light
Length of Day
Tomorrow will be .
, % of the Moon is Illuminated

Today's Extremes

State Highs State Lows

Community

WunderPhotos

Upload Photos

1,890,916 photos uploaded!

WunderBlog® & News

Nearby

Air Quality

  Air Quality AQ Index Pollutant
Not available.

Snow Depth

Station Depth Elevation

Earthquake Activity

City Distance Mag. Time & Date
Minimum magnitude displayed is 2.5.

Coastal Water Temperatures

Place Temperature

Stations

Nearby Weather Stations

Station Location Temp. Windchill Dew Point Humidity Wind Precip. Elev Updated Type
                   

Watches & Warnings

There are currently no watches in effect.